sensor_id;sensor_type;location;lat;lon;timestamp;temperature;humidity
19862;DHT22;10093;48.148;8.542;2022-12-20T00:00:00;0.70;99.90
19862;DHT22;10093;48.148;8.542;2022-12-20T00:02:26;0.40;99.90
19862;DHT22;10093;48.148;8.542;2022-12-20T00:04:51;0.30;99.90
19862;DHT22;10093;48.148;8.542;2022-12-20T00:07:17;0.10;99.90
19862;DHT22;10093;48.148;8.542;2022-12-20T00:09:43;0.10;99.90
19862;DHT22;10093;48.148;8.542;2022-12-20T00:12:08;0.10;99.90
19862;DHT22;10093;48.148;8.542;2022-12-20T00:14:34;0.00;99.90
19862;DHT22;10093;48.148;8.542;2022-12-20T00:17:00;0.20;99.90
19862;DHT22;10093;48.148;8.542;2022-12-20T00:19:25;0.20;99.90
19862;DHT22;10093;48.148;8.542;2022-12-20T00:21:51;0.40;99.90
19862;DHT22;10093;48.148;8.542;2022-12-20T00:24:17;0.30;99.90
19862;DHT22;10093;48.148;8.542;2022-12-20T00:26:42;0.30;99.90
19862;DHT22;10093;48.148;8.542;2022-12-20T00:29:08;0.30;99.90
19862;DHT22;10093;48.148;8.542;2022-12-20T00:31:33;0.20;99.90
19862;DHT22;10093;48.148;8.542;2022-12-20T00:34:00;0.20;99.90
19862;DHT22;10093;48.148;8.542;2022-12-20T00:36:28;0.30;99.90
19862;DHT22;10093;48.148;8.542;2022-12-20T00:38:55;0.50;99.90
19862;DHT22;10093;48.148;8.542;2022-12-20T00:41:23;0.60;99.90
19862;DHT22;10093;48.148;8.542;2022-12-20T00:43:49;0.60;99.90
19862;DHT22;10093;48.148;8.542;2022-12-20T00:46:17;0.70;99.90
19862;DHT22;10093;48.148;8.542;2022-12-20T00:48:43;0.50;99.90
19862;DHT22;10093;48.148;8.542;2022-12-20T00:51:11;0.50;99.90
19862;DHT22;10093;48.148;8.542;2022-12-20T00:53:38;0.40;99.90
19862;DHT22;10093;48.148;8.542;2022-12-20T00:56:05;0.40;99.90
19862;DHT22;10093;48.148;8.542;2022-12-20T00:58:32;0.30;99.90
19862;DHT22;10093;48.148;8.542;2022-12-20T01:00:58;0.40;99.90
19862;DHT22;10093;48.148;8.542;2022-12-20T01:03:24;0.60;99.90
19862;DHT22;10093;48.148;8.542;2022-12-20T01:06:00;0.70;99.90
19862;DHT22;10093;48.148;8.542;2022-12-20T01:08:28;0.60;99.90
19862;DHT22;10093;48.148;8.542;2022-12-20T01:11:19;0.60;99.90
19862;DHT22;10093;48.148;8.542;2022-12-20T01:13:48;0.80;99.90
19862;DHT22;10093;48.148;8.542;2022-12-20T01:16:24;0.80;99.90
19862;DHT22;10093;48.148;8.542;2022-12-20T01:18:51;0.70;99.90
19862;DHT22;10093;48.148;8.542;2022-12-20T01:21:19;0.70;99.90
19862;DHT22;10093;48.148;8.542;2022-12-20T01:23:46;0.90;99.90
19862;DHT22;10093;48.148;8.542;2022-12-20T01:26:14;1.40;99.90
19862;DHT22;10093;48.148;8.542;2022-12-20T01:28:41;1.50;99.90
19862;DHT22;10093;48.148;8.542;2022-12-20T01:31:09;1.50;99.90
19862;DHT22;10093;48.148;8.542;2022-12-20T01:33:35;1.60;99.90
19862;DHT22;10093;48.148;8.542;2022-12-20T01:36:10;1.70;99.90
19862;DHT22;10093;48.148;8.542;2022-12-20T01:38:36;1.70;99.90
19862;DHT22;10093;48.148;8.542;2022-12-20T01:41:02;1.80;99.90
19862;DHT22;10093;48.148;8.542;2022-12-20T01:43:48;1.80;99.90
19862;DHT22;10093;48.148;8.542;2022-12-20T01:46:15;1.50;99.90
19862;DHT22;10093;48.148;8.542;2022-12-20T01:48:43;1.40;99.90
19862;DHT22;10093;48.148;8.542;2022-12-20T01:51:10;1.70;99.90
19862;DHT22;10093;48.148;8.542;2022-12-20T01:53:36;1.80;99.90
19862;DHT22;10093;48.148;8.542;2022-12-20T01:56:04;2.00;99.90
19862;DHT22;10093;48.148;8.542;2022-12-20T01:58:31;2.00;99.90
19862;DHT22;10093;48.148;8.542;2022-12-20T02:00:57;2.20;99.90
19862;DHT22;10093;48.148;8.542;2022-12-20T02:03:24;1.90;99.90
19862;DHT22;10093;48.148;8.542;2022-12-20T02:05:49;1.70;99.90
19862;DHT22;10093;48.148;8.542;2022-12-20T02:08:18;1.80;99.90
19862;DHT22;10093;48.148;8.542;2022-12-20T02:13:26;1.70;99.90
19862;DHT22;10093;48.148;8.542;2022-12-20T02:15:57;1.80;99.90
19862;DHT22;10093;48.148;8.542;2022-12-20T02:18:40;1.70;99.90
19862;DHT22;10093;48.148;8.542;2022-12-20T02:26:59;1.80;99.90
19862;DHT22;10093;48.148;8.542;2022-12-20T02:32:35;1.20;99.90
19862;DHT22;10093;48.148;8.542;2022-12-20T02:35:06;1.10;99.90
19862;DHT22;10093;48.148;8.542;2022-12-20T02:37:32;1.30;99.90
19862;DHT22;10093;48.148;8.542;2022-12-20T02:39:58;1.50;99.90
19862;DHT22;10093;48.148;8.542;2022-12-20T02:42:24;1.60;99.90
19862;DHT22;10093;48.148;8.542;2022-12-20T02:45:02;1.40;99.90
19862;DHT22;10093;48.148;8.542;2022-12-20T02:50:10;2.10;99.90
19862;DHT22;10093;48.148;8.542;2022-12-20T02:52:37;2.00;99.90
19862;DHT22;10093;48.148;8.542;2022-12-20T02:55:04;1.90;99.90
19862;DHT22;10093;48.148;8.542;2022-12-20T02:57:32;1.70;99.90
19862;DHT22;10093;48.148;8.542;2022-12-20T03:00:04;1.70;99.90
19862;DHT22;10093;48.148;8.542;2022-12-20T03:02:31;1.70;99.90
19862;DHT22;10093;48.148;8.542;2022-12-20T03:05:19;1.60;99.90
19862;DHT22;10093;48.148;8.542;2022-12-20T03:07:45;1.60;99.90
19862;DHT22;10093;48.148;8.542;2022-12-20T03:10:11;1.70;99.90
19862;DHT22;10093;48.148;8.542;2022-12-20T03:12:36;1.90;99.90
19862;DHT22;10093;48.148;8.542;2022-12-20T03:15:02;1.90;99.90
19862;DHT22;10093;48.148;8.542;2022-12-20T03:17:28;2.00;99.90
19862;DHT22;10093;48.148;8.542;2022-12-20T03:19:53;2.20;99.90
19862;DHT22;10093;48.148;8.542;2022-12-20T03:22:19;2.40;99.90
19862;DHT22;10093;48.148;8.542;2022-12-20T03:24:44;2.60;99.90
19862;DHT22;10093;48.148;8.542;2022-12-20T03:27:10;2.80;99.90
19862;DHT22;10093;48.148;8.542;2022-12-20T03:29:36;2.80;99.90
19862;DHT22;10093;48.148;8.542;2022-12-20T03:32:01;2.70;99.90
19862;DHT22;10093;48.148;8.542;2022-12-20T03:34:27;2.50;99.90
19862;DHT22;10093;48.148;8.542;2022-12-20T03:36:52;2.60;99.90
19862;DHT22;10093;48.148;8.542;2022-12-20T03:39:18;2.60;99.90
19862;DHT22;10093;48.148;8.542;2022-12-20T03:41:44;2.70;99.90
19862;DHT22;10093;48.148;8.542;2022-12-20T03:44:09;2.70;99.90
19862;DHT22;10093;48.148;8.542;2022-12-20T03:46:35;2.70;99.90
19862;DHT22;10093;48.148;8.542;2022-12-20T03:49:01;2.60;99.90
19862;DHT22;10093;48.148;8.542;2022-12-20T03:51:26;2.70;99.90
19862;DHT22;10093;48.148;8.542;2022-12-20T03:53:52;2.90;99.90
19862;DHT22;10093;48.148;8.542;2022-12-20T03:56:17;3.10;99.90
19862;DHT22;10093;48.148;8.542;2022-12-20T03:58:43;3.30;99.90
19862;DHT22;10093;48.148;8.542;2022-12-20T04:01:20;3.20;99.90
19862;DHT22;10093;48.148;8.542;2022-12-20T04:03:46;3.40;99.90
19862;DHT22;10093;48.148;8.542;2022-12-20T04:06:12;3.60;99.90
19862;DHT22;10093;48.148;8.542;2022-12-20T04:08:37;3.60;99.90
19862;DHT22;10093;48.148;8.542;2022-12-20T04:11:03;3.70;99.90
19862;DHT22;10093;48.148;8.542;2022-12-20T04:13:41;3.60;99.90
19862;DHT22;10093;48.148;8.542;2022-12-20T04:16:07;3.40;99.90
19862;DHT22;10093;48.148;8.542;2022-12-20T04:18:33;3.30;99.90
19862;DHT22;10093;48.148;8.542;2022-12-20T04:21:00;3.40;99.90
19862;DHT22;10093;48.148;8.542;2022-12-20T04:23:26;3.30;99.90
19862;DHT22;10093;48.148;8.542;2022-12-20T04:25:51;3.30;99.90
19862;DHT22;10093;48.148;8.542;2022-12-20T04:28:17;3.20;99.90
19862;DHT22;10093;48.148;8.542;2022-12-20T04:30:42;3.40;99.90
19862;DHT22;10093;48.148;8.542;2022-12-20T04:33:08;3.50;99.90
19862;DHT22;10093;48.148;8.542;2022-12-20T04:35:34;3.60;99.90
19862;DHT22;10093;48.148;8.542;2022-12-20T04:38:00;3.60;99.90
19862;DHT22;10093;48.148;8.542;2022-12-20T04:40:25;3.60;99.90
19862;DHT22;10093;48.148;8.542;2022-12-20T04:42:51;3.60;99.90
19862;DHT22;10093;48.148;8.542;2022-12-20T04:45:17;3.70;99.90
19862;DHT22;10093;48.148;8.542;2022-12-20T04:47:42;3.70;99.90
19862;DHT22;10093;48.148;8.542;2022-12-20T04:50:08;4.00;99.90
19862;DHT22;10093;48.148;8.542;2022-12-20T04:52:34;4.00;99.90
19862;DHT22;10093;48.148;8.542;2022-12-20T04:55:18;4.00;99.90
19862;DHT22;10093;48.148;8.542;2022-12-20T04:57:44;3.90;99.90
19862;DHT22;10093;48.148;8.542;2022-12-20T05:00:10;3.90;99.90
19862;DHT22;10093;48.148;8.542;2022-12-20T05:02:36;4.00;99.90
19862;DHT22;10093;48.148;8.542;2022-12-20T05:05:02;3.90;99.90
19862;DHT22;10093;48.148;8.542;2022-12-20T05:07:27;4.00;99.90
19862;DHT22;10093;48.148;8.542;2022-12-20T05:09:53;3.90;99.90
19862;DHT22;10093;48.148;8.542;2022-12-20T05:12:19;3.90;99.90
19862;DHT22;10093;48.148;8.542;2022-12-20T05:14:44;3.90;99.90
19862;DHT22;10093;48.148;8.542;2022-12-20T05:17:10;3.90;99.90
19862;DHT22;10093;48.148;8.542;2022-12-20T05:19:35;3.90;99.90
19862;DHT22;10093;48.148;8.542;2022-12-20T05:22:13;4.00;99.90
19862;DHT22;10093;48.148;8.542;2022-12-20T05:24:58;4.20;99.90
19862;DHT22;10093;48.148;8.542;2022-12-20T05:27:42;4.10;99.90
19862;DHT22;10093;48.148;8.542;2022-12-20T05:30:08;4.10;99.90
19862;DHT22;10093;48.148;8.542;2022-12-20T05:32:34;4.00;99.90
19862;DHT22;10093;48.148;8.542;2022-12-20T05:34:59;4.00;99.90
19862;DHT22;10093;48.148;8.542;2022-12-20T05:37:25;4.00;99.90
19862;DHT22;10093;48.148;8.542;2022-12-20T05:39:50;4.00;99.90
19862;DHT22;10093;48.148;8.542;2022-12-20T05:42:16;4.10;99.90
19862;DHT22;10093;48.148;8.542;2022-12-20T05:44:42;4.20;99.90
19862;DHT22;10093;48.148;8.542;2022-12-20T05:47:08;4.00;99.90
19862;DHT22;10093;48.148;8.542;2022-12-20T05:49:33;3.70;99.90
19862;DHT22;10093;48.148;8.542;2022-12-20T05:52:00;3.50;99.90
19862;DHT22;10093;48.148;8.542;2022-12-20T05:54:26;3.30;99.90
19862;DHT22;10093;48.148;8.542;2022-12-20T05:56:51;3.50;99.90
19862;DHT22;10093;48.148;8.542;2022-12-20T05:59:17;3.40;99.90
19862;DHT22;10093;48.148;8.542;2022-12-20T06:01:42;3.40;99.90
19862;DHT22;10093;48.148;8.542;2022-12-20T06:04:20;3.20;99.90
19862;DHT22;10093;48.148;8.542;2022-12-20T06:06:48;3.10;99.90
19862;DHT22;10093;48.148;8.542;2022-12-20T06:09:13;3.10;99.90
19862;DHT22;10093;48.148;8.542;2022-12-20T06:11:39;2.90;99.90
19862;DHT22;10093;48.148;8.542;2022-12-20T06:14:05;2.80;99.90
19862;DHT22;10093;48.148;8.542;2022-12-20T06:16:30;2.50;99.90
19862;DHT22;10093;48.148;8.542;2022-12-20T06:18:56;2.60;99.90
19862;DHT22;10093;48.148;8.542;2022-12-20T06:21:22;2.40;99.90
19862;DHT22;10093;48.148;8.542;2022-12-20T06:23:47;2.40;99.90
19862;DHT22;10093;48.148;8.542;2022-12-20T06:26:13;2.50;99.90
19862;DHT22;10093;48.148;8.542;2022-12-20T06:28:39;2.50;99.90
19862;DHT22;10093;48.148;8.542;2022-12-20T06:31:09;2.50;99.90
19862;DHT22;10093;48.148;8.542;2022-12-20T06:33:35;2.50;99.90
19862;DHT22;10093;48.148;8.542;2022-12-20T06:36:02;2.60;99.90
19862;DHT22;10093;48.148;8.542;2022-12-20T06:38:28;2.80;99.90
19862;DHT22;10093;48.148;8.542;2022-12-20T06:40:53;2.70;99.90
19862;DHT22;10093;48.148;8.542;2022-12-20T06:43:19;2.70;99.90
19862;DHT22;10093;48.148;8.542;2022-12-20T06:45:45;2.70;99.90
19862;DHT22;10093;48.148;8.542;2022-12-20T06:48:10;2.80;99.90
19862;DHT22;10093;48.148;8.542;2022-12-20T06:50:37;2.80;99.90
19862;DHT22;10093;48.148;8.542;2022-12-20T06:53:03;2.80;99.90
19862;DHT22;10093;48.148;8.542;2022-12-20T06:55:29;3.00;99.90
19862;DHT22;10093;48.148;8.542;2022-12-20T06:57:54;3.00;99.90
19862;DHT22;10093;48.148;8.542;2022-12-20T07:00:21;3.00;99.90
19862;DHT22;10093;48.148;8.542;2022-12-20T07:02:47;3.10;99.90
19862;DHT22;10093;48.148;8.542;2022-12-20T07:05:12;3.20;99.90
19862;DHT22;10093;48.148;8.542;2022-12-20T07:07:38;3.20;99.90
19862;DHT22;10093;48.148;8.542;2022-12-20T07:10:04;3.20;99.90
19862;DHT22;10093;48.148;8.542;2022-12-20T07:12:30;3.20;99.90
19862;DHT22;10093;48.148;8.542;2022-12-20T07:14:57;3.20;99.90
19862;DHT22;10093;48.148;8.542;2022-12-20T07:17:23;3.30;99.90
19862;DHT22;10093;48.148;8.542;2022-12-20T07:19:49;3.20;99.90
19862;DHT22;10093;48.148;8.542;2022-12-20T07:22:14;3.30;99.90
19862;DHT22;10093;48.148;8.542;2022-12-20T07:24:40;3.10;99.90
19862;DHT22;10093;48.148;8.542;2022-12-20T07:27:06;3.10;99.90
19862;DHT22;10093;48.148;8.542;2022-12-20T07:29:32;3.10;99.90
19862;DHT22;10093;48.148;8.542;2022-12-20T07:31:58;3.00;99.90
19862;DHT22;10093;48.148;8.542;2022-12-20T07:34:24;2.90;99.90
19862;DHT22;10093;48.148;8.542;2022-12-20T07:36:49;3.00;99.90
19862;DHT22;10093;48.148;8.542;2022-12-20T07:39:15;2.90;99.90
19862;DHT22;10093;48.148;8.542;2022-12-20T07:41:40;3.30;99.90
19862;DHT22;10093;48.148;8.542;2022-12-20T07:44:06;3.30;99.90
19862;DHT22;10093;48.148;8.542;2022-12-20T07:46:32;3.30;99.90
19862;DHT22;10093;48.148;8.542;2022-12-20T07:48:57;3.40;99.90
19862;DHT22;10093;48.148;8.542;2022-12-20T07:51:30;3.40;99.90
19862;DHT22;10093;48.148;8.542;2022-12-20T07:54:23;3.50;99.90
19862;DHT22;10093;48.148;8.542;2022-12-20T07:56:53;3.50;99.90
19862;DHT22;10093;48.148;8.542;2022-12-20T07:59:27;3.60;99.90
19862;DHT22;10093;48.148;8.542;2022-12-20T08:01:55;3.80;99.90
19862;DHT22;10093;48.148;8.542;2022-12-20T08:04:24;3.90;99.90
19862;DHT22;10093;48.148;8.542;2022-12-20T08:06:54;3.80;99.90
19862;DHT22;10093;48.148;8.542;2022-12-20T08:09:21;3.90;99.90
19862;DHT22;10093;48.148;8.542;2022-12-20T08:11:49;4.00;99.90
19862;DHT22;10093;48.148;8.542;2022-12-20T08:14:16;4.00;99.90
19862;DHT22;10093;48.148;8.542;2022-12-20T08:16:42;4.00;99.90
19862;DHT22;10093;48.148;8.542;2022-12-20T08:19:09;4.10;99.90
19862;DHT22;10093;48.148;8.542;2022-12-20T08:21:34;4.10;99.90
19862;DHT22;10093;48.148;8.542;2022-12-20T08:24:00;4.20;99.90
19862;DHT22;10093;48.148;8.542;2022-12-20T08:26:26;4.20;99.90
19862;DHT22;10093;48.148;8.542;2022-12-20T08:28:53;4.20;99.90
19862;DHT22;10093;48.148;8.542;2022-12-20T08:31:18;4.30;99.90
19862;DHT22;10093;48.148;8.542;2022-12-20T08:33:44;4.50;99.90
19862;DHT22;10093;48.148;8.542;2022-12-20T08:36:11;4.60;99.90
19862;DHT22;10093;48.148;8.542;2022-12-20T08:38:37;4.70;99.90
19862;DHT22;10093;48.148;8.542;2022-12-20T08:41:07;4.80;99.90
19862;DHT22;10093;48.148;8.542;2022-12-20T08:43:35;4.90;99.90
19862;DHT22;10093;48.148;8.542;2022-12-20T08:46:01;4.80;99.90
19862;DHT22;10093;48.148;8.542;2022-12-20T08:48:27;4.90;99.90
19862;DHT22;10093;48.148;8.542;2022-12-20T08:50:57;4.90;99.90
19862;DHT22;10093;48.148;8.542;2022-12-20T08:53:23;4.80;99.90
19862;DHT22;10093;48.148;8.542;2022-12-20T08:55:49;4.90;99.90
19862;DHT22;10093;48.148;8.542;2022-12-20T08:58:15;4.90;99.90
19862;DHT22;10093;48.148;8.542;2022-12-20T09:00:40;4.80;99.90
19862;DHT22;10093;48.148;8.542;2022-12-20T09:03:06;4.70;99.90
19862;DHT22;10093;48.148;8.542;2022-12-20T09:05:32;4.80;99.90
19862;DHT22;10093;48.148;8.542;2022-12-20T09:07:58;5.10;99.90
19862;DHT22;10093;48.148;8.542;2022-12-20T09:10:24;5.30;99.90
19862;DHT22;10093;48.148;8.542;2022-12-20T09:12:50;5.40;99.90
19862;DHT22;10093;48.148;8.542;2022-12-20T09:15:15;5.60;99.90
19862;DHT22;10093;48.148;8.542;2022-12-20T09:17:41;5.60;99.90
19862;DHT22;10093;48.148;8.542;2022-12-20T09:20:07;5.60;99.90
19862;DHT22;10093;48.148;8.542;2022-12-20T09:22:32;5.80;99.90
19862;DHT22;10093;48.148;8.542;2022-12-20T09:24:58;5.90;99.90
19862;DHT22;10093;48.148;8.542;2022-12-20T09:27:23;5.80;99.90
19862;DHT22;10093;48.148;8.542;2022-12-20T09:29:49;5.90;99.90
19862;DHT22;10093;48.148;8.542;2022-12-20T09:32:15;6.20;99.90
19862;DHT22;10093;48.148;8.542;2022-12-20T09:34:40;6.20;99.90
19862;DHT22;10093;48.148;8.542;2022-12-20T09:37:06;6.00;99.90
19862;DHT22;10093;48.148;8.542;2022-12-20T09:39:31;6.40;99.90
19862;DHT22;10093;48.148;8.542;2022-12-20T09:41:57;6.30;99.90
19862;DHT22;10093;48.148;8.542;2022-12-20T09:44:27;6.40;99.90
19862;DHT22;10093;48.148;8.542;2022-12-20T09:47:04;6.50;99.90
19862;DHT22;10093;48.148;8.542;2022-12-20T09:49:35;6.60;99.90
19862;DHT22;10093;48.148;8.542;2022-12-20T10:00:18;6.40;99.90
19862;DHT22;10093;48.148;8.542;2022-12-20T10:02:44;6.40;99.90
19862;DHT22;10093;48.148;8.542;2022-12-20T10:05:19;6.30;99.90
19862;DHT22;10093;48.148;8.542;2022-12-20T10:10:51;6.30;99.90
19862;DHT22;10093;48.148;8.542;2022-12-20T10:18:46;6.20;99.90
19862;DHT22;10093;48.148;8.542;2022-12-20T10:24:24;6.10;99.90
19862;DHT22;10093;48.148;8.542;2022-12-20T10:26:51;6.00;99.90
19862;DHT22;10093;48.148;8.542;2022-12-20T10:29:17;6.00;99.90
19862;DHT22;10093;48.148;8.542;2022-12-20T10:31:43;6.00;99.90
19862;DHT22;10093;48.148;8.542;2022-12-20T10:34:09;6.00;99.90
19862;DHT22;10093;48.148;8.542;2022-12-20T10:36:35;5.90;99.90
19862;DHT22;10093;48.148;8.542;2022-12-20T10:39:06;5.90;99.90
19862;DHT22;10093;48.148;8.542;2022-12-20T10:46:45;5.60;99.90
19862;DHT22;10093;48.148;8.542;2022-12-20T10:51:53;5.60;99.90
19862;DHT22;10093;48.148;8.542;2022-12-20T10:54:42;5.60;99.90
19862;DHT22;10093;48.148;8.542;2022-12-20T10:59:49;5.70;99.90
19862;DHT22;10093;48.148;8.542;2022-12-20T11:07:55;5.90;99.90
19862;DHT22;10093;48.148;8.542;2022-12-20T11:10:29;6.00;99.90
19862;DHT22;10093;48.148;8.542;2022-12-20T11:12:56;6.10;99.90
19862;DHT22;10093;48.148;8.542;2022-12-20T11:15:34;6.10;99.90
19862;DHT22;10093;48.148;8.542;2022-12-20T11:20:41;6.30;99.90
19862;DHT22;10093;48.148;8.542;2022-12-20T11:23:50;6.40;99.90
19862;DHT22;10093;48.148;8.542;2022-12-20T11:31:55;6.60;99.90
19862;DHT22;10093;48.148;8.542;2022-12-20T11:34:37;6.70;99.90
19862;DHT22;10093;48.148;8.542;2022-12-20T11:37:17;6.90;99.90
19862;DHT22;10093;48.148;8.542;2022-12-20T11:45:29;7.70;99.90
19862;DHT22;10093;48.148;8.542;2022-12-20T11:53:41;7.70;99.90
19862;DHT22;10093;48.148;8.542;2022-12-20T11:56:31;7.70;99.90
19862;DHT22;10093;48.148;8.542;2022-12-20T12:04:54;7.40;99.90
19862;DHT22;10093;48.148;8.542;2022-12-20T12:07:24;7.20;99.90
19862;DHT22;10093;48.148;8.542;2022-12-20T12:10:03;7.10;99.90
19862;DHT22;10093;48.148;8.542;2022-12-20T12:12:50;7.00;99.90
19862;DHT22;10093;48.148;8.542;2022-12-20T12:15:35;6.90;99.90
19862;DHT22;10093;48.148;8.542;2022-12-20T12:18:17;6.90;99.90
19862;DHT22;10093;48.148;8.542;2022-12-20T12:20:49;7.10;99.90
19862;DHT22;10093;48.148;8.542;2022-12-20T12:23:25;7.20;99.90
19862;DHT22;10093;48.148;8.542;2022-12-20T12:25:52;7.30;99.90
19862;DHT22;10093;48.148;8.542;2022-12-20T12:28:19;7.40;99.90
19862;DHT22;10093;48.148;8.542;2022-12-20T12:30:51;7.60;99.90
19862;DHT22;10093;48.148;8.542;2022-12-20T12:33:29;7.80;99.90
19862;DHT22;10093;48.148;8.542;2022-12-20T12:46:49;8.50;99.90
19862;DHT22;10093;48.148;8.542;2022-12-20T12:49:19;10.10;99.90
19862;DHT22;10093;48.148;8.542;2022-12-20T12:51:52;10.60;99.90
19862;DHT22;10093;48.148;8.542;2022-12-20T12:54:37;11.10;99.90
19862;DHT22;10093;48.148;8.542;2022-12-20T12:57:15;10.50;99.90
19862;DHT22;10093;48.148;8.542;2022-12-20T12:59:46;9.90;99.90
19862;DHT22;10093;48.148;8.542;2022-12-20T13:18:00;8.90;99.90
19862;DHT22;10093;48.148;8.542;2022-12-20T13:20:28;9.20;99.90
19862;DHT22;10093;48.148;8.542;2022-12-20T13:25:41;12.20;99.90
19862;DHT22;10093;48.148;8.542;2022-12-20T13:30:47;13.80;99.90
19862;DHT22;10093;48.148;8.542;2022-12-20T13:33:42;13.40;99.90
19862;DHT22;10093;48.148;8.542;2022-12-20T13:38:38;12.20;99.90
19862;DHT22;10093;48.148;8.542;2022-12-20T13:41:26;11.70;99.90
19862;DHT22;10093;48.148;8.542;2022-12-20T13:43:56;11.30;99.90
19862;DHT22;10093;48.148;8.542;2022-12-20T13:46:50;10.90;99.90
19862;DHT22;10093;48.148;8.542;2022-12-20T13:49:24;10.40;99.90
19862;DHT22;10093;48.148;8.542;2022-12-20T13:54:47;9.90;99.90
19862;DHT22;10093;48.148;8.542;2022-12-20T13:57:16;9.80;99.90
19862;DHT22;10093;48.148;8.542;2022-12-20T13:59:50;9.20;99.90
19862;DHT22;10093;48.148;8.542;2022-12-20T14:02:33;9.10;99.90
19862;DHT22;10093;48.148;8.542;2022-12-20T14:05:12;8.60;99.90
19862;DHT22;10093;48.148;8.542;2022-12-20T14:07:38;8.10;99.90
19862;DHT22;10093;48.148;8.542;2022-12-20T14:10:22;7.70;99.90
19862;DHT22;10093;48.148;8.542;2022-12-20T14:12:49;8.20;99.90
19862;DHT22;10093;48.148;8.542;2022-12-20T14:15:32;9.00;99.90
19862;DHT22;10093;48.148;8.542;2022-12-20T14:18:14;10.40;99.90
19862;DHT22;10093;48.148;8.542;2022-12-20T14:20:41;11.00;99.90
19862;DHT22;10093;48.148;8.542;2022-12-20T14:23:10;11.70;99.90
19862;DHT22;10093;48.148;8.542;2022-12-20T14:25:53;11.70;99.90
19862;DHT22;10093;48.148;8.542;2022-12-20T14:28:42;11.60;99.90
19862;DHT22;10093;48.148;8.542;2022-12-20T14:34:05;11.30;99.90
19862;DHT22;10093;48.148;8.542;2022-12-20T14:36:41;10.80;99.90
19862;DHT22;10093;48.148;8.542;2022-12-20T14:39:26;10.30;99.90
19862;DHT22;10093;48.148;8.542;2022-12-20T14:44:34;11.10;99.90
19862;DHT22;10093;48.148;8.542;2022-12-20T14:47:03;11.00;99.90
19862;DHT22;10093;48.148;8.542;2022-12-20T14:49:35;10.80;99.90
19862;DHT22;10093;48.148;8.542;2022-12-20T15:15:53;6.20;99.90
19862;DHT22;10093;48.148;8.542;2022-12-20T15:18:20;6.10;99.90
19862;DHT22;10093;48.148;8.542;2022-12-20T15:20:51;5.90;99.90
19862;DHT22;10093;48.148;8.542;2022-12-20T15:23:20;5.70;99.90
19862;DHT22;10093;48.148;8.542;2022-12-20T15:25:47;5.50;99.90
19862;DHT22;10093;48.148;8.542;2022-12-20T15:28:16;5.50;99.90
19862;DHT22;10093;48.148;8.542;2022-12-20T15:30:43;5.70;99.90
19862;DHT22;10093;48.148;8.542;2022-12-20T15:33:16;5.80;99.90
19862;DHT22;10093;48.148;8.542;2022-12-20T15:35:42;6.00;99.90
19862;DHT22;10093;48.148;8.542;2022-12-20T15:38:13;6.10;99.90
19862;DHT22;10093;48.148;8.542;2022-12-20T15:40:41;6.30;99.90
19862;DHT22;10093;48.148;8.542;2022-12-20T15:43:18;6.40;99.90
19862;DHT22;10093;48.148;8.542;2022-12-20T15:45:47;6.40;99.90
19862;DHT22;10093;48.148;8.542;2022-12-20T15:48:16;6.50;99.90
19862;DHT22;10093;48.148;8.542;2022-12-20T15:50:56;6.50;99.90
19862;DHT22;10093;48.148;8.542;2022-12-20T15:53:32;6.60;99.90
19862;DHT22;10093;48.148;8.542;2022-12-20T15:55:59;6.70;99.90
19862;DHT22;10093;48.148;8.542;2022-12-20T15:58:25;6.60;99.90
19862;DHT22;10093;48.148;8.542;2022-12-20T16:00:59;6.50;99.90
19862;DHT22;10093;48.148;8.542;2022-12-20T16:03:31;6.20;99.90
19862;DHT22;10093;48.148;8.542;2022-12-20T16:05:56;6.10;99.90
19862;DHT22;10093;48.148;8.542;2022-12-20T16:08:22;6.10;99.90
19862;DHT22;10093;48.148;8.542;2022-12-20T16:10:50;6.00;99.90
19862;DHT22;10093;48.148;8.542;2022-12-20T16:13:23;5.80;99.90
19862;DHT22;10093;48.148;8.542;2022-12-20T16:15:50;5.80;99.90
19862;DHT22;10093;48.148;8.542;2022-12-20T16:18:16;5.90;99.90
19862;DHT22;10093;48.148;8.542;2022-12-20T16:20:42;5.80;99.90
19862;DHT22;10093;48.148;8.542;2022-12-20T16:23:18;5.90;99.90
19862;DHT22;10093;48.148;8.542;2022-12-20T16:25:44;5.80;99.90
19862;DHT22;10093;48.148;8.542;2022-12-20T16:28:10;5.70;99.90
19862;DHT22;10093;48.148;8.542;2022-12-20T16:30:36;5.80;99.90
19862;DHT22;10093;48.148;8.542;2022-12-20T16:33:02;5.80;99.90
19862;DHT22;10093;48.148;8.542;2022-12-20T16:35:32;5.90;99.90
19862;DHT22;10093;48.148;8.542;2022-12-20T16:37:59;6.00;99.90
19862;DHT22;10093;48.148;8.542;2022-12-20T16:40:34;5.90;99.90
19862;DHT22;10093;48.148;8.542;2022-12-20T16:43:02;5.80;99.90
19862;DHT22;10093;48.148;8.542;2022-12-20T16:45:29;5.90;99.90
19862;DHT22;10093;48.148;8.542;2022-12-20T16:47:56;5.80;99.90
19862;DHT22;10093;48.148;8.542;2022-12-20T16:50:25;5.60;99.90
19862;DHT22;10093;48.148;8.542;2022-12-20T16:52:52;5.40;99.90
19862;DHT22;10093;48.148;8.542;2022-12-20T16:55:21;5.30;99.90
19862;DHT22;10093;48.148;8.542;2022-12-20T16:57:47;5.30;99.90
19862;DHT22;10093;48.148;8.542;2022-12-20T17:00:22;5.30;99.90
19862;DHT22;10093;48.148;8.542;2022-12-20T17:02:48;5.30;99.90
19862;DHT22;10093;48.148;8.542;2022-12-20T17:05:27;5.20;99.90
19862;DHT22;10093;48.148;8.542;2022-12-20T17:07:54;5.00;99.90
19862;DHT22;10093;48.148;8.542;2022-12-20T17:10:20;5.00;99.90
19862;DHT22;10093;48.148;8.542;2022-12-20T17:12:47;5.10;99.90
19862;DHT22;10093;48.148;8.542;2022-12-20T17:15:24;5.20;99.90
19862;DHT22;10093;48.148;8.542;2022-12-20T17:17:51;5.00;99.90
19862;DHT22;10093;48.148;8.542;2022-12-20T17:20:18;5.10;99.90
19862;DHT22;10093;48.148;8.542;2022-12-20T17:22:48;5.00;99.90
19862;DHT22;10093;48.148;8.542;2022-12-20T17:25:23;5.10;99.90
19862;DHT22;10093;48.148;8.542;2022-12-20T17:27:50;5.10;99.90
19862;DHT22;10093;48.148;8.542;2022-12-20T17:30:16;5.00;99.90
19862;DHT22;10093;48.148;8.542;2022-12-20T17:32:43;5.00;99.90
19862;DHT22;10093;48.148;8.542;2022-12-20T17:35:21;5.20;99.90
19862;DHT22;10093;48.148;8.542;2022-12-20T17:37:47;5.20;99.90
19862;DHT22;10093;48.148;8.542;2022-12-20T17:40:14;5.30;99.90
19862;DHT22;10093;48.148;8.542;2022-12-20T17:42:40;5.30;99.90
19862;DHT22;10093;48.148;8.542;2022-12-20T17:45:25;5.20;99.90
19862;DHT22;10093;48.148;8.542;2022-12-20T17:47:52;5.10;99.90
19862;DHT22;10093;48.148;8.542;2022-12-20T17:50:18;5.10;99.90
19862;DHT22;10093;48.148;8.542;2022-12-20T17:52:45;4.90;99.90
19862;DHT22;10093;48.148;8.542;2022-12-20T17:55:23;4.90;99.90
19862;DHT22;10093;48.148;8.542;2022-12-20T17:57:50;4.80;99.90
19862;DHT22;10093;48.148;8.542;2022-12-20T18:00:22;4.70;99.90
19862;DHT22;10093;48.148;8.542;2022-12-20T18:02:48;4.70;99.90
19862;DHT22;10093;48.148;8.542;2022-12-20T18:05:14;4.60;99.90
19862;DHT22;10093;48.148;8.542;2022-12-20T18:07:39;4.40;99.90
19862;DHT22;10093;48.148;8.542;2022-12-20T18:10:07;4.50;99.90
19862;DHT22;10093;48.148;8.542;2022-12-20T18:12:33;4.40;99.90
19862;DHT22;10093;48.148;8.542;2022-12-20T18:14:58;4.30;99.90
19862;DHT22;10093;48.148;8.542;2022-12-20T18:17:25;4.30;99.90